KMVE/MVE METAR and TAF weather

Enter ICAO airport designator
Station Type Date Time Source
KMVE METAR 2020/09/20 15:35 UTC NOAA

KMVE 201535Z AUTO 21014G23KT 10SM CLR 18/09 A3002 RMK AO2


Station Type Date Time Source
KMVE Decoded METAR 2020/09/20 15:35 UTC NOAA

Montevideo, Montevideo-Chippewa County Airport, MN, United States (KMVE) 44-58N 095-43W
Sep 20, 2020 - 11:35 AM EDT / 2020.09.20 1535 UTC
Wind: from the SSW (210 degrees) at 16 MPH (14 KT) gusting to 26 MPH (23 KT):0
Visibility: 10 mile(s):0
Sky conditions: clear
Temperature: 64 F (18 C)
Dew Point: 48 F (9 C)
Relative Humidity: 55%
Pressure (altimeter): 30.02 in. Hg (1016 hPa)
ob: KMVE 201535Z AUTO 21014G23KT 10SM CLR 18/09 A3002 RMK AO2
cycle: 15

Station Type Date Time Source
KMVE TAF UTC NOAA

Error!

Example: see airport list